sensor_id;sensor_type;location;lat;lon;timestamp;P1;durP1;ratioP1;P2;durP2;ratioP2
67156;SDS011;54086;50.126;8.710;2023-03-21T00:01:30;9.30;;;3.40;;
67156;SDS011;54086;50.126;8.710;2023-03-21T00:03:55;8.27;;;2.87;;
67156;SDS011;54086;50.126;8.710;2023-03-21T00:06:20;11.07;;;3.50;;
67156;SDS011;54086;50.126;8.710;2023-03-21T00:08:46;9.38;;;3.00;;
67156;SDS011;54086;50.126;8.710;2023-03-21T00:11:12;10.50;;;3.03;;
67156;SDS011;54086;50.126;8.710;2023-03-21T00:13:38;9.68;;;3.03;;
67156;SDS011;54086;50.126;8.710;2023-03-21T00:16:13;8.30;;;2.63;;
67156;SDS011;54086;50.126;8.710;2023-03-21T00:18:44;8.52;;;2.85;;
67156;SDS011;54086;50.126;8.710;2023-03-21T00:21:13;6.87;;;2.50;;
67156;SDS011;54086;50.126;8.710;2023-03-21T00:23:40;8.30;;;2.85;;
67156;SDS011;54086;50.126;8.710;2023-03-21T00:26:07;8.88;;;2.90;;
67156;SDS011;54086;50.126;8.710;2023-03-21T00:28:34;13.80;;;3.50;;
67156;SDS011;54086;50.126;8.710;2023-03-21T00:31:00;8.82;;;2.80;;
67156;SDS011;54086;50.126;8.710;2023-03-21T00:33:26;9.87;;;3.03;;
67156;SDS011;54086;50.126;8.710;2023-03-21T00:35:51;9.60;;;3.10;;
67156;SDS011;54086;50.126;8.710;2023-03-21T00:38:18;8.88;;;3.10;;
67156;SDS011;54086;50.126;8.710;2023-03-21T00:40:44;8.27;;;2.95;;
67156;SDS011;54086;50.126;8.710;2023-03-21T00:43:09;7.50;;;2.70;;
67156;SDS011;54086;50.126;8.710;2023-03-21T00:45:47;8.00;;;3.05;;
67156;SDS011;54086;50.126;8.710;2023-03-21T00:48:15;9.20;;;2.88;;
67156;SDS011;54086;50.126;8.710;2023-03-21T00:50:41;7.57;;;2.70;;
67156;SDS011;54086;50.126;8.710;2023-03-21T00:53:09;9.20;;;2.83;;
67156;SDS011;54086;50.126;8.710;2023-03-21T00:55:35;8.23;;;3.10;;
67156;SDS011;54086;50.126;8.710;2023-03-21T00:58:02;10.10;;;3.22;;
67156;SDS011;54086;50.126;8.710;2023-03-21T01:00:27;7.27;;;3.10;;
67156;SDS011;54086;50.126;8.710;2023-03-21T01:02:53;8.88;;;3.20;;
67156;SDS011;54086;50.126;8.710;2023-03-21T01:05:23;8.77;;;3.20;;
67156;SDS011;54086;50.126;8.710;2023-03-21T01:08:13;7.47;;;2.75;;
67156;SDS011;54086;50.126;8.710;2023-03-21T01:10:40;8.32;;;2.85;;
67156;SDS011;54086;50.126;8.710;2023-03-21T01:13:08;10.13;;;2.83;;
67156;SDS011;54086;50.126;8.710;2023-03-21T01:15:34;10.95;;;4.03;;
67156;SDS011;54086;50.126;8.710;2023-03-21T01:18:01;7.73;;;3.30;;
67156;SDS011;54086;50.126;8.710;2023-03-21T01:20:26;9.45;;;3.35;;
67156;SDS011;54086;50.126;8.710;2023-03-21T01:22:52;9.57;;;2.87;;
67156;SDS011;54086;50.126;8.710;2023-03-21T01:25:18;8.20;;;2.78;;
67156;SDS011;54086;50.126;8.710;2023-03-21T01:27:43;9.57;;;3.40;;
67156;SDS011;54086;50.126;8.710;2023-03-21T01:30:09;8.47;;;3.20;;
67156;SDS011;54086;50.126;8.710;2023-03-21T01:32:35;9.15;;;3.13;;
67156;SDS011;54086;50.126;8.710;2023-03-21T01:35:01;7.93;;;3.20;;
67156;SDS011;54086;50.126;8.710;2023-03-21T01:37:26;9.13;;;3.20;;
67156;SDS011;54086;50.126;8.710;2023-03-21T01:39:51;8.90;;;3.20;;
67156;SDS011;54086;50.126;8.710;2023-03-21T01:42:17;9.03;;;3.23;;
67156;SDS011;54086;50.126;8.710;2023-03-21T01:44:56;7.77;;;3.50;;
67156;SDS011;54086;50.126;8.710;2023-03-21T01:47:23;11.32;;;3.65;;
67156;SDS011;54086;50.126;8.710;2023-03-21T01:49:50;8.90;;;3.38;;
67156;SDS011;54086;50.126;8.710;2023-03-21T01:52:20;10.10;;;3.20;;
67156;SDS011;54086;50.126;8.710;2023-03-21T01:54:56;7.73;;;3.20;;
67156;SDS011;54086;50.126;8.710;2023-03-21T01:57:26;9.55;;;3.03;;
67156;SDS011;54086;50.126;8.710;2023-03-21T01:59:56;9.40;;;3.33;;
67156;SDS011;54086;50.126;8.710;2023-03-21T02:02:29;8.57;;;3.40;;
67156;SDS011;54086;50.126;8.710;2023-03-21T02:04:55;8.70;;;3.15;;
67156;SDS011;54086;50.126;8.710;2023-03-21T02:07:32;8.70;;;3.30;;
67156;SDS011;54086;50.126;8.710;2023-03-21T02:10:01;8.07;;;3.25;;
67156;SDS011;54086;50.126;8.710;2023-03-21T02:12:29;9.00;;;3.60;;
67156;SDS011;54086;50.126;8.710;2023-03-21T02:14:55;7.97;;;3.60;;
67156;SDS011;54086;50.126;8.710;2023-03-21T02:25:51;9.48;;;3.97;;
67156;SDS011;54086;50.126;8.710;2023-03-21T02:28:32;11.55;;;3.50;;
67156;SDS011;54086;50.126;8.710;2023-03-21T02:33:57;8.83;;;3.80;;
67156;SDS011;54086;50.126;8.710;2023-03-21T02:41:56;10.45;;;3.50;;
67156;SDS011;54086;50.126;8.710;2023-03-21T02:47:22;12.37;;;4.37;;
67156;SDS011;54086;50.126;8.710;2023-03-21T02:52:36;8.63;;;3.35;;
67156;SDS011;54086;50.126;8.710;2023-03-21T02:55:03;8.85;;;3.75;;
67156;SDS011;54086;50.126;8.710;2023-03-21T02:57:37;8.82;;;3.90;;
67156;SDS011;54086;50.126;8.710;2023-03-21T03:00:04;9.07;;;3.50;;
67156;SDS011;54086;50.126;8.710;2023-03-21T03:02:36;11.30;;;3.75;;
67156;SDS011;54086;50.126;8.710;2023-03-21T03:05:08;7.57;;;3.88;;
67156;SDS011;54086;50.126;8.710;2023-03-21T03:10:30;13.00;;;4.00;;
67156;SDS011;54086;50.126;8.710;2023-03-21T03:18:19;8.70;;;3.47;;
67156;SDS011;54086;50.126;8.710;2023-03-21T03:23:37;9.57;;;4.10;;
67156;SDS011;54086;50.126;8.710;2023-03-21T03:26:16;8.98;;;3.35;;
67156;SDS011;54086;50.126;8.710;2023-03-21T03:28:51;9.73;;;3.72;;
67156;SDS011;54086;50.126;8.710;2023-03-21T03:31:24;8.82;;;3.90;;
67156;SDS011;54086;50.126;8.710;2023-03-21T03:33:54;10.40;;;4.15;;
67156;SDS011;54086;50.126;8.710;2023-03-21T03:36:22;12.60;;;3.90;;
67156;SDS011;54086;50.126;8.710;2023-03-21T03:38:51;8.98;;;4.10;;
67156;SDS011;54086;50.126;8.710;2023-03-21T03:41:23;9.75;;;4.13;;
67156;SDS011;54086;50.126;8.710;2023-03-21T03:43:51;12.15;;;4.78;;
67156;SDS011;54086;50.126;8.710;2023-03-21T03:46:28;10.55;;;4.25;;
67156;SDS011;54086;50.126;8.710;2023-03-21T03:48:59;10.10;;;4.40;;
67156;SDS011;54086;50.126;8.710;2023-03-21T03:51:34;10.20;;;4.20;;
67156;SDS011;54086;50.126;8.710;2023-03-21T03:54:10;9.60;;;4.05;;
67156;SDS011;54086;50.126;8.710;2023-03-21T03:56:39;10.70;;;3.92;;
67156;SDS011;54086;50.126;8.710;2023-03-21T03:59:05;12.27;;;4.57;;
67156;SDS011;54086;50.126;8.710;2023-03-21T04:01:31;11.45;;;4.47;;
67156;SDS011;54086;50.126;8.710;2023-03-21T04:03:58;10.40;;;4.00;;
67156;SDS011;54086;50.126;8.710;2023-03-21T04:06:24;9.53;;;4.07;;
67156;SDS011;54086;50.126;8.710;2023-03-21T04:08:52;11.68;;;4.35;;
67156;SDS011;54086;50.126;8.710;2023-03-21T04:11:18;11.55;;;3.90;;
67156;SDS011;54086;50.126;8.710;2023-03-21T04:13:43;10.23;;;4.37;;
67156;SDS011;54086;50.126;8.710;2023-03-21T04:16:09;10.93;;;3.83;;
67156;SDS011;54086;50.126;8.710;2023-03-21T04:18:36;9.82;;;4.40;;
67156;SDS011;54086;50.126;8.710;2023-03-21T04:21:05;12.10;;;4.35;;
67156;SDS011;54086;50.126;8.710;2023-03-21T04:23:32;9.45;;;3.92;;
67156;SDS011;54086;50.126;8.710;2023-03-21T04:25:59;10.27;;;4.13;;
67156;SDS011;54086;50.126;8.710;2023-03-21T04:28:25;10.77;;;4.05;;
67156;SDS011;54086;50.126;8.710;2023-03-21T04:30:50;10.70;;;4.83;;
67156;SDS011;54086;50.126;8.710;2023-03-21T04:33:16;11.67;;;4.00;;
67156;SDS011;54086;50.126;8.710;2023-03-21T04:35:41;9.23;;;4.20;;
67156;SDS011;54086;50.126;8.710;2023-03-21T04:38:09;9.70;;;4.47;;
67156;SDS011;54086;50.126;8.710;2023-03-21T04:40:35;12.13;;;4.03;;
67156;SDS011;54086;50.126;8.710;2023-03-21T04:43:00;10.60;;;4.20;;
67156;SDS011;54086;50.126;8.710;2023-03-21T04:45:26;9.77;;;4.30;;
67156;SDS011;54086;50.126;8.710;2023-03-21T04:47:51;10.90;;;4.40;;
67156;SDS011;54086;50.126;8.710;2023-03-21T04:50:17;11.13;;;4.10;;
67156;SDS011;54086;50.126;8.710;2023-03-21T04:52:42;14.20;;;4.20;;
67156;SDS011;54086;50.126;8.710;2023-03-21T04:55:08;12.03;;;4.10;;
67156;SDS011;54086;50.126;8.710;2023-03-21T04:57:34;13.00;;;4.30;;
67156;SDS011;54086;50.126;8.710;2023-03-21T05:00:04;11.73;;;4.50;;
67156;SDS011;54086;50.126;8.710;2023-03-21T05:02:34;11.10;;;4.50;;
67156;SDS011;54086;50.126;8.710;2023-03-21T05:04:59;11.53;;;4.10;;
67156;SDS011;54086;50.126;8.710;2023-03-21T05:07:25;10.40;;;3.90;;
67156;SDS011;54086;50.126;8.710;2023-03-21T05:09:50;10.80;;;4.50;;
67156;SDS011;54086;50.126;8.710;2023-03-21T05:12:16;9.32;;;4.32;;
67156;SDS011;54086;50.126;8.710;2023-03-21T05:14:43;10.85;;;4.47;;
67156;SDS011;54086;50.126;8.710;2023-03-21T05:17:08;11.07;;;3.83;;
67156;SDS011;54086;50.126;8.710;2023-03-21T05:19:34;10.23;;;4.30;;
67156;SDS011;54086;50.126;8.710;2023-03-21T05:22:01;10.27;;;4.27;;
67156;SDS011;54086;50.126;8.710;2023-03-21T05:24:30;10.93;;;4.47;;
67156;SDS011;54086;50.126;8.710;2023-03-21T05:26:56;10.48;;;4.28;;
67156;SDS011;54086;50.126;8.710;2023-03-21T05:29:26;10.50;;;4.25;;
67156;SDS011;54086;50.126;8.710;2023-03-21T05:31:53;11.10;;;4.57;;
67156;SDS011;54086;50.126;8.710;2023-03-21T05:34:19;10.88;;;4.28;;
67156;SDS011;54086;50.126;8.710;2023-03-21T05:36:44;9.80;;;4.27;;
67156;SDS011;54086;50.126;8.710;2023-03-21T05:39:10;11.20;;;4.10;;
67156;SDS011;54086;50.126;8.710;2023-03-21T05:41:35;10.17;;;4.60;;
67156;SDS011;54086;50.126;8.710;2023-03-21T05:44:00;10.25;;;4.65;;
67156;SDS011;54086;50.126;8.710;2023-03-21T05:46:26;11.67;;;4.70;;
67156;SDS011;54086;50.126;8.710;2023-03-21T05:48:54;10.30;;;4.72;;
67156;SDS011;54086;50.126;8.710;2023-03-21T05:51:19;9.83;;;4.43;;
67156;SDS011;54086;50.126;8.710;2023-03-21T05:53:45;10.23;;;4.73;;
67156;SDS011;54086;50.126;8.710;2023-03-21T05:56:10;12.67;;;5.00;;
67156;SDS011;54086;50.126;8.710;2023-03-21T05:58:36;10.93;;;4.40;;
67156;SDS011;54086;50.126;8.710;2023-03-21T06:01:01;10.60;;;4.77;;
67156;SDS011;54086;50.126;8.710;2023-03-21T06:03:26;10.40;;;4.10;;
67156;SDS011;54086;50.126;8.710;2023-03-21T06:05:52;11.33;;;5.33;;
67156;SDS011;54086;50.126;8.710;2023-03-21T06:08:17;10.80;;;5.10;;
67156;SDS011;54086;50.126;8.710;2023-03-21T06:10:43;11.02;;;4.50;;
67156;SDS011;54086;50.126;8.710;2023-03-21T06:13:08;11.83;;;4.60;;
67156;SDS011;54086;50.126;8.710;2023-03-21T06:15:34;10.47;;;5.00;;
67156;SDS011;54086;50.126;8.710;2023-03-21T06:17:59;13.23;;;5.03;;
67156;SDS011;54086;50.126;8.710;2023-03-21T06:20:24;10.87;;;4.47;;
67156;SDS011;54086;50.126;8.710;2023-03-21T06:22:50;10.03;;;5.13;;
67156;SDS011;54086;50.126;8.710;2023-03-21T06:25:15;10.67;;;4.57;;
67156;SDS011;54086;50.126;8.710;2023-03-21T06:27:41;10.27;;;4.60;;
67156;SDS011;54086;50.126;8.710;2023-03-21T06:30:06;9.93;;;4.43;;
67156;SDS011;54086;50.126;8.710;2023-03-21T06:32:32;12.45;;;4.93;;
67156;SDS011;54086;50.126;8.710;2023-03-21T06:34:58;13.33;;;5.30;;
67156;SDS011;54086;50.126;8.710;2023-03-21T06:37:23;9.70;;;4.77;;
67156;SDS011;54086;50.126;8.710;2023-03-21T06:39:50;10.48;;;4.88;;
67156;SDS011;54086;50.126;8.710;2023-03-21T06:42:15;14.10;;;5.10;;
67156;SDS011;54086;50.126;8.710;2023-03-21T06:44:41;11.40;;;5.27;;
67156;SDS011;54086;50.126;8.710;2023-03-21T06:47:06;11.52;;;5.28;;
67156;SDS011;54086;50.126;8.710;2023-03-21T06:49:32;11.97;;;5.33;;
67156;SDS011;54086;50.126;8.710;2023-03-21T06:51:57;16.00;;;5.80;;
67156;SDS011;54086;50.126;8.710;2023-03-21T06:54:22;12.27;;;5.60;;
67156;SDS011;54086;50.126;8.710;2023-03-21T06:56:48;13.32;;;5.25;;
67156;SDS011;54086;50.126;8.710;2023-03-21T06:59:13;11.00;;;5.37;;
67156;SDS011;54086;50.126;8.710;2023-03-21T07:01:39;14.03;;;5.70;;
67156;SDS011;54086;50.126;8.710;2023-03-21T07:04:06;12.70;;;5.38;;
67156;SDS011;54086;50.126;8.710;2023-03-21T07:06:32;11.10;;;5.30;;
67156;SDS011;54086;50.126;8.710;2023-03-21T07:08:58;11.17;;;5.77;;
67156;SDS011;54086;50.126;8.710;2023-03-21T07:11:23;10.13;;;4.80;;
67156;SDS011;54086;50.126;8.710;2023-03-21T07:13:49;11.00;;;5.03;;
67156;SDS011;54086;50.126;8.710;2023-03-21T07:16:15;11.47;;;4.47;;
67156;SDS011;54086;50.126;8.710;2023-03-21T07:18:42;10.18;;;4.68;;
67156;SDS011;54086;50.126;8.710;2023-03-21T07:21:07;10.27;;;5.20;;
67156;SDS011;54086;50.126;8.710;2023-03-21T07:23:33;12.98;;;5.63;;
67156;SDS011;54086;50.126;8.710;2023-03-21T07:25:58;11.87;;;4.97;;
67156;SDS011;54086;50.126;8.710;2023-03-21T07:28:25;9.98;;;5.15;;
67156;SDS011;54086;50.126;8.710;2023-03-21T07:30:52;13.30;;;4.95;;
67156;SDS011;54086;50.126;8.710;2023-03-21T07:33:19;12.50;;;5.30;;
67156;SDS011;54086;50.126;8.710;2023-03-21T07:35:45;10.40;;;4.85;;
67156;SDS011;54086;50.126;8.710;2023-03-21T07:38:10;12.53;;;5.17;;
67156;SDS011;54086;50.126;8.710;2023-03-21T07:40:37;13.30;;;5.20;;
67156;SDS011;54086;50.126;8.710;2023-03-21T07:43:03;11.80;;;4.83;;
67156;SDS011;54086;50.126;8.710;2023-03-21T07:45:28;13.17;;;5.17;;
67156;SDS011;54086;50.126;8.710;2023-03-21T07:47:54;16.35;;;5.18;;
67156;SDS011;54086;50.126;8.710;2023-03-21T07:50:19;10.03;;;4.93;;
67156;SDS011;54086;50.126;8.710;2023-03-21T07:52:45;12.02;;;4.72;;
67156;SDS011;54086;50.126;8.710;2023-03-21T07:55:11;10.90;;;4.43;;
67156;SDS011;54086;50.126;8.710;2023-03-21T07:57:37;11.83;;;4.63;;
67156;SDS011;54086;50.126;8.710;2023-03-21T08:00:03;9.90;;;4.43;;
67156;SDS011;54086;50.126;8.710;2023-03-21T08:02:30;12.88;;;5.18;;
67156;SDS011;54086;50.126;8.710;2023-03-21T08:04:55;11.90;;;4.53;;
67156;SDS011;54086;50.126;8.710;2023-03-21T08:07:21;12.90;;;5.40;;
67156;SDS011;54086;50.126;8.710;2023-03-21T08:09:46;11.02;;;5.18;;
67156;SDS011;54086;50.126;8.710;2023-03-21T08:12:12;11.37;;;5.40;;
67156;SDS011;54086;50.126;8.710;2023-03-21T08:14:37;12.50;;;4.87;;
67156;SDS011;54086;50.126;8.710;2023-03-21T08:17:03;11.70;;;5.43;;
67156;SDS011;54086;50.126;8.710;2023-03-21T08:19:30;10.93;;;4.75;;
67156;SDS011;54086;50.126;8.710;2023-03-21T08:21:55;11.33;;;5.30;;
67156;SDS011;54086;50.126;8.710;2023-03-21T08:24:24;12.00;;;5.00;;
67156;SDS011;54086;50.126;8.710;2023-03-21T08:26:50;13.18;;;5.30;;
67156;SDS011;54086;50.126;8.710;2023-03-21T08:29:15;14.20;;;4.97;;
67156;SDS011;54086;50.126;8.710;2023-03-21T08:31:41;12.93;;;4.93;;
67156;SDS011;54086;50.126;8.710;2023-03-21T08:34:06;13.70;;;5.57;;
67156;SDS011;54086;50.126;8.710;2023-03-21T08:36:32;11.30;;;5.00;;
67156;SDS011;54086;50.126;8.710;2023-03-21T08:39:00;11.57;;;4.85;;
67156;SDS011;54086;50.126;8.710;2023-03-21T08:41:32;10.40;;;4.63;;
67156;SDS011;54086;50.126;8.710;2023-03-21T08:43:59;9.63;;;4.40;;
67156;SDS011;54086;50.126;8.710;2023-03-21T08:46:24;12.70;;;4.87;;
67156;SDS011;54086;50.126;8.710;2023-03-21T08:48:50;10.38;;;4.50;;
67156;SDS011;54086;50.126;8.710;2023-03-21T08:51:16;12.47;;;5.47;;
67156;SDS011;54086;50.126;8.710;2023-03-21T08:53:41;13.55;;;5.22;;
67156;SDS011;54086;50.126;8.710;2023-03-21T08:56:08;13.73;;;5.07;;
67156;SDS011;54086;50.126;8.710;2023-03-21T08:58:34;10.95;;;5.03;;
67156;SDS011;54086;50.126;8.710;2023-03-21T09:01:00;10.85;;;4.65;;
67156;SDS011;54086;50.126;8.710;2023-03-21T09:03:26;13.00;;;5.80;;
67156;SDS011;54086;50.126;8.710;2023-03-21T09:05:52;12.02;;;5.35;;
67156;SDS011;54086;50.126;8.710;2023-03-21T09:08:18;16.37;;;5.17;;
67156;SDS011;54086;50.126;8.710;2023-03-21T09:10:48;10.95;;;5.03;;
67156;SDS011;54086;50.126;8.710;2023-03-21T09:13:14;13.07;;;4.97;;
67156;SDS011;54086;50.126;8.710;2023-03-21T09:15:39;13.07;;;4.70;;
67156;SDS011;54086;50.126;8.710;2023-03-21T09:18:04;12.53;;;4.90;;
67156;SDS011;54086;50.126;8.710;2023-03-21T09:20:43;11.18;;;4.50;;
67156;SDS011;54086;50.126;8.710;2023-03-21T09:23:10;11.05;;;4.88;;
67156;SDS011;54086;50.126;8.710;2023-03-21T09:25:38;11.10;;;4.70;;
67156;SDS011;54086;50.126;8.710;2023-03-21T09:28:05;12.05;;;4.82;;
67156;SDS011;54086;50.126;8.710;2023-03-21T09:30:31;12.53;;;4.63;;
67156;SDS011;54086;50.126;8.710;2023-03-21T09:32:58;12.27;;;5.15;;
67156;SDS011;54086;50.126;8.710;2023-03-21T09:35:24;12.52;;;5.10;;
67156;SDS011;54086;50.126;8.710;2023-03-21T09:37:51;14.07;;;5.10;;
67156;SDS011;54086;50.126;8.710;2023-03-21T09:40:18;12.25;;;5.40;;
67156;SDS011;54086;50.126;8.710;2023-03-21T09:42:55;11.63;;;5.05;;
67156;SDS011;54086;50.126;8.710;2023-03-21T09:48:03;11.48;;;4.68;;
67156;SDS011;54086;50.126;8.710;2023-03-21T09:50:34;16.07;;;5.10;;
67156;SDS011;54086;50.126;8.710;2023-03-21T09:53:04;11.73;;;4.85;;
67156;SDS011;54086;50.126;8.710;2023-03-21T09:55:35;10.77;;;4.95;;
67156;SDS011;54086;50.126;8.710;2023-03-21T10:00:59;12.85;;;6.03;;
67156;SDS011;54086;50.126;8.710;2023-03-21T10:03:51;14.07;;;5.27;;
67156;SDS011;54086;50.126;8.710;2023-03-21T10:06:18;13.52;;;4.93;;
67156;SDS011;54086;50.126;8.710;2023-03-21T10:08:52;10.73;;;4.88;;
67156;SDS011;54086;50.126;8.710;2023-03-21T10:11:29;13.25;;;5.55;;
67156;SDS011;54086;50.126;8.710;2023-03-21T10:14:03;11.95;;;5.45;;
67156;SDS011;54086;50.126;8.710;2023-03-21T10:16:44;13.90;;;5.97;;
67156;SDS011;54086;50.126;8.710;2023-03-21T10:19:14;13.75;;;5.93;;
67156;SDS011;54086;50.126;8.710;2023-03-21T10:21:43;12.23;;;5.57;;
67156;SDS011;54086;50.126;8.710;2023-03-21T10:24:12;13.05;;;5.30;;
67156;SDS011;54086;50.126;8.710;2023-03-21T10:26:39;10.32;;;5.57;;
67156;SDS011;54086;50.126;8.710;2023-03-21T10:29:06;11.03;;;5.70;;
67156;SDS011;54086;50.126;8.710;2023-03-21T10:31:36;13.23;;;5.07;;
67156;SDS011;54086;50.126;8.710;2023-03-21T10:34:03;9.88;;;4.60;;
67156;SDS011;54086;50.126;8.710;2023-03-21T10:36:33;9.73;;;4.73;;
67156;SDS011;54086;50.126;8.710;2023-03-21T10:39:07;13.10;;;5.53;;
67156;SDS011;54086;50.126;8.710;2023-03-21T10:41:58;12.80;;;5.18;;
67156;SDS011;54086;50.126;8.710;2023-03-21T10:44:33;13.33;;;5.13;;
67156;SDS011;54086;50.126;8.710;2023-03-21T10:47:06;11.25;;;5.05;;
67156;SDS011;54086;50.126;8.710;2023-03-21T10:49:33;11.63;;;5.18;;
67156;SDS011;54086;50.126;8.710;2023-03-21T10:52:02;11.45;;;4.88;;
67156;SDS011;54086;50.126;8.710;2023-03-21T10:54:31;15.68;;;5.60;;
67156;SDS011;54086;50.126;8.710;2023-03-21T10:57:07;10.27;;;5.43;;
67156;SDS011;54086;50.126;8.710;2023-03-21T10:59:40;12.45;;;5.25;;
67156;SDS011;54086;50.126;8.710;2023-03-21T11:02:14;13.25;;;5.82;;
67156;SDS011;54086;50.126;8.710;2023-03-21T11:04:43;15.55;;;6.05;;
67156;SDS011;54086;50.126;8.710;2023-03-21T11:07:11;13.95;;;5.72;;
67156;SDS011;54086;50.126;8.710;2023-03-21T11:09:57;13.87;;;5.93;;
67156;SDS011;54086;50.126;8.710;2023-03-21T11:12:28;14.82;;;5.75;;
67156;SDS011;54086;50.126;8.710;2023-03-21T11:14:57;12.98;;;5.57;;
67156;SDS011;54086;50.126;8.710;2023-03-21T11:17:49;12.35;;;5.22;;
67156;SDS011;54086;50.126;8.710;2023-03-21T11:20:16;14.77;;;6.00;;
67156;SDS011;54086;50.126;8.710;2023-03-21T11:22:43;14.35;;;5.70;;
67156;SDS011;54086;50.126;8.710;2023-03-21T11:25:31;12.27;;;5.60;;
67156;SDS011;54086;50.126;8.710;2023-03-21T11:41:31;15.48;;;6.30;;
67156;SDS011;54086;50.126;8.710;2023-03-21T11:43:58;14.60;;;6.05;;
67156;SDS011;54086;50.126;8.710;2023-03-21T11:46:25;14.67;;;6.90;;
67156;SDS011;54086;50.126;8.710;2023-03-21T11:48:53;13.52;;;6.93;;
67156;SDS011;54086;50.126;8.710;2023-03-21T11:54:18;17.30;;;6.65;;
67156;SDS011;54086;50.126;8.710;2023-03-21T11:56:51;14.68;;;7.13;;
67156;SDS011;54086;50.126;8.710;2023-03-21T11:59:32;12.73;;;6.63;;
67156;SDS011;54086;50.126;8.710;2023-03-21T12:04:54;14.18;;;7.22;;
67156;SDS011;54086;50.126;8.710;2023-03-21T12:11:00;15.23;;;7.32;;
67156;SDS011;54086;50.126;8.710;2023-03-21T12:16:08;15.13;;;7.03;;
67156;SDS011;54086;50.126;8.710;2023-03-21T12:21:25;16.05;;;7.68;;
67156;SDS011;54086;50.126;8.710;2023-03-21T12:24:19;15.07;;;6.80;;
67156;SDS011;54086;50.126;8.710;2023-03-21T12:51:32;10.77;;;5.97;;
67156;SDS011;54086;50.126;8.710;2023-03-21T12:54:04;13.88;;;6.43;;
67156;SDS011;54086;50.126;8.710;2023-03-21T12:56:53;16.90;;;6.73;;
67156;SDS011;54086;50.126;8.710;2023-03-21T12:59:22;13.25;;;6.20;;
67156;SDS011;54086;50.126;8.710;2023-03-21T13:01:57;15.40;;;6.80;;
67156;SDS011;54086;50.126;8.710;2023-03-21T13:04:36;12.57;;;5.43;;
67156;SDS011;54086;50.126;8.710;2023-03-21T13:07:16;12.57;;;4.55;;
67156;SDS011;54086;50.126;8.710;2023-03-21T13:09:44;9.67;;;3.80;;
67156;SDS011;54086;50.126;8.710;2023-03-21T13:14:58;10.20;;;3.75;;
67156;SDS011;54086;50.126;8.710;2023-03-21T13:17:55;8.98;;;3.83;;
67156;SDS011;54086;50.126;8.710;2023-03-21T13:20:47;12.02;;;3.70;;
67156;SDS011;54086;50.126;8.710;2023-03-21T13:23:20;14.83;;;3.80;;
67156;SDS011;54086;50.126;8.710;2023-03-21T13:25:47;9.73;;;3.00;;
67156;SDS011;54086;50.126;8.710;2023-03-21T13:28:35;8.68;;;3.22;;
67156;SDS011;54086;50.126;8.710;2023-03-21T13:31:20;10.65;;;4.00;;
67156;SDS011;54086;50.126;8.710;2023-03-21T13:33:50;8.95;;;3.60;;
67156;SDS011;54086;50.126;8.710;2023-03-21T13:36:21;9.47;;;3.10;;
67156;SDS011;54086;50.126;8.710;2023-03-21T13:38:53;10.60;;;3.80;;
67156;SDS011;54086;50.126;8.710;2023-03-21T13:41:30;9.93;;;3.83;;
67156;SDS011;54086;50.126;8.710;2023-03-21T13:48:54;11.77;;;4.50;;
67156;SDS011;54086;50.126;8.710;2023-03-21T13:56:27;8.48;;;3.38;;
67156;SDS011;54086;50.126;8.710;2023-03-21T13:59:01;9.85;;;3.80;;
67156;SDS011;54086;50.126;8.710;2023-03-21T14:04:03;10.33;;;4.17;;
67156;SDS011;54086;50.126;8.710;2023-03-21T14:06:41;9.57;;;3.85;;
67156;SDS011;54086;50.126;8.710;2023-03-21T14:09:15;12.57;;;4.10;;
67156;SDS011;54086;50.126;8.710;2023-03-21T14:11:45;10.85;;;4.05;;
67156;SDS011;54086;50.126;8.710;2023-03-21T14:14:12;10.60;;;4.00;;
67156;SDS011;54086;50.126;8.710;2023-03-21T14:16:38;12.63;;;4.18;;
67156;SDS011;54086;50.126;8.710;2023-03-21T14:19:05;9.55;;;4.05;;
67156;SDS011;54086;50.126;8.710;2023-03-21T14:21:31;13.00;;;4.30;;
67156;SDS011;54086;50.126;8.710;2023-03-21T14:26:26;8.13;;;3.83;;
67156;SDS011;54086;50.126;8.710;2023-03-21T14:28:55;12.55;;;4.13;;
67156;SDS011;54086;50.126;8.710;2023-03-21T14:31:20;10.27;;;4.00;;
67156;SDS011;54086;50.126;8.710;2023-03-21T14:33:50;11.60;;;5.00;;
67156;SDS011;54086;50.126;8.710;2023-03-21T14:36:28;9.98;;;4.10;;
67156;SDS011;54086;50.126;8.710;2023-03-21T14:42:06;9.85;;;4.40;;
67156;SDS011;54086;50.126;8.710;2023-03-21T14:44:46;11.60;;;4.57;;
67156;SDS011;54086;50.126;8.710;2023-03-21T14:47:17;9.95;;;4.07;;
67156;SDS011;54086;50.126;8.710;2023-03-21T14:49:47;11.38;;;4.45;;
67156;SDS011;54086;50.126;8.710;2023-03-21T14:52:15;12.30;;;4.30;;
67156;SDS011;54086;50.126;8.710;2023-03-21T14:54:45;12.90;;;4.60;;
67156;SDS011;54086;50.126;8.710;2023-03-21T14:57:12;12.20;;;5.55;;
67156;SDS011;54086;50.126;8.710;2023-03-21T14:59:42;11.88;;;4.80;;
67156;SDS011;54086;50.126;8.710;2023-03-21T15:02:15;11.15;;;6.10;;
67156;SDS011;54086;50.126;8.710;2023-03-21T15:04:56;12.43;;;4.83;;
67156;SDS011;54086;50.126;8.710;2023-03-21T15:07:30;10.73;;;4.40;;
67156;SDS011;54086;50.126;8.710;2023-03-21T15:09:59;11.20;;;4.72;;
67156;SDS011;54086;50.126;8.710;2023-03-21T15:12:28;10.57;;;4.55;;
67156;SDS011;54086;50.126;8.710;2023-03-21T15:14:54;11.73;;;4.68;;
67156;SDS011;54086;50.126;8.710;2023-03-21T15:17:20;12.60;;;4.80;;
67156;SDS011;54086;50.126;8.710;2023-03-21T15:19:47;14.82;;;4.55;;
67156;SDS011;54086;50.126;8.710;2023-03-21T15:25:17;14.40;;;5.20;;
67156;SDS011;54086;50.126;8.710;2023-03-21T15:27:49;12.55;;;5.00;;
67156;SDS011;54086;50.126;8.710;2023-03-21T15:30:18;9.57;;;4.70;;
67156;SDS011;54086;50.126;8.710;2023-03-21T15:32:47;11.43;;;4.53;;
67156;SDS011;54086;50.126;8.710;2023-03-21T15:35:14;13.10;;;5.18;;
67156;SDS011;54086;50.126;8.710;2023-03-21T15:37:43;13.10;;;5.35;;
67156;SDS011;54086;50.126;8.710;2023-03-21T15:40:18;13.67;;;5.70;;
67156;SDS011;54086;50.126;8.710;2023-03-21T15:42:47;15.18;;;4.80;;
67156;SDS011;54086;50.126;8.710;2023-03-21T15:45:14;10.50;;;5.70;;
67156;SDS011;54086;50.126;8.710;2023-03-21T15:50:25;13.75;;;5.15;;
67156;SDS011;54086;50.126;8.710;2023-03-21T15:52:57;15.13;;;5.85;;
67156;SDS011;54086;50.126;8.710;2023-03-21T15:55:45;11.82;;;5.32;;
67156;SDS011;54086;50.126;8.710;2023-03-21T15:58:23;13.07;;;5.77;;
67156;SDS011;54086;50.126;8.710;2023-03-21T16:00:55;15.40;;;6.57;;
67156;SDS011;54086;50.126;8.710;2023-03-21T16:03:26;16.40;;;5.93;;
67156;SDS011;54086;50.126;8.710;2023-03-21T16:08:36;14.18;;;5.75;;
67156;SDS011;54086;50.126;8.710;2023-03-21T16:13:47;15.07;;;6.00;;
67156;SDS011;54086;50.126;8.710;2023-03-21T16:16:18;38.83;;;15.63;;
67156;SDS011;54086;50.126;8.710;2023-03-21T16:18:48;15.85;;;7.40;;
67156;SDS011;54086;50.126;8.710;2023-03-21T16:21:16;15.88;;;7.78;;
67156;SDS011;54086;50.126;8.710;2023-03-21T16:23:44;16.90;;;6.13;;
67156;SDS011;54086;50.126;8.710;2023-03-21T16:26:14;16.43;;;6.50;;
67156;SDS011;54086;50.126;8.710;2023-03-21T16:28:44;13.30;;;5.95;;
67156;SDS011;54086;50.126;8.710;2023-03-21T16:31:11;13.48;;;5.97;;
67156;SDS011;54086;50.126;8.710;2023-03-21T16:33:38;12.65;;;5.97;;
67156;SDS011;54086;50.126;8.710;2023-03-21T16:36:04;12.30;;;6.20;;
67156;SDS011;54086;50.126;8.710;2023-03-21T16:38:30;14.35;;;6.35;;
67156;SDS011;54086;50.126;8.710;2023-03-21T16:40:56;14.93;;;6.97;;
67156;SDS011;54086;50.126;8.710;2023-03-21T16:43:21;15.87;;;6.47;;
67156;SDS011;54086;50.126;8.710;2023-03-21T16:45:46;14.70;;;6.73;;
67156;SDS011;54086;50.126;8.710;2023-03-21T16:48:12;21.20;;;7.95;;
67156;SDS011;54086;50.126;8.710;2023-03-21T16:50:40;13.87;;;6.77;;
67156;SDS011;54086;50.126;8.710;2023-03-21T16:53:07;12.57;;;6.22;;